Terminal Aerodrome Forecast
Issued by NWS Bismarck, ND

Home | Current Version | Previous Version | Text Only | Print | Product List | Glossary Off
Versions: 1 2 3 4 5 6 7 8 9 10 11 12 13 14 15 16 17 18 19

676
FTUS43 KBIS 221612 AAA
TAFISN
TAF AMD
KISN 221612Z 2216/2312 30020G28KT P6SM SKC
     FM221700 28026G38KT P6SM SKC
     FM221900 29031G45KT P6SM SCT070 BKN100
     FM230400 32020G30KT P6SM BKN025
     FM230900 32011KT P6SM FEW030 SCT045=

USA.gov is the U.S. government's official web portal to all federal, state and local government web resources and services.